.
WxDataArchive / Data Records for 2014-09-11
2014-09-10 September 2014 2014-09-12

Data Records for Thursday, 11 September 2014

Time	Temp	Chill	HIndex	Humid	Dewpt	 Wind 	HiWind	WindDir	Rain 	Barom
-----	----	-----	------	-----	-----	------	------	-------	-----	-----
00:00	71.3	71.3	71.3	89	67.9	2	9	270	0.00	29.670 
00:05	71.3	71.3	71.3	88	67.6	2	5	270	0.00	29.670 
00:10	71.1	71.1	71.1	87	67.0	4	9	270	0.00	29.670 
00:15	70.6	70.6	70.6	85	65.9	4	11	270	0.00	29.676 
00:20	69.9	69.9	69.9	86	65.5	4	9	270	0.00	29.676 
00:25	69.4	69.4	69.4	87	65.4	3	6	315	0.00	29.676 
00:30	68.3	68.3	68.3	86	63.9	3	9	292	0.00	29.700 
00:35	67.1	67.1	67.1	87	63.1	3	6	315	0.00	29.700 
00:40	66.4	66.4	66.4	88	62.7	3	5	292	0.00	29.700 
00:45	66.1	66.1	66.1	88	62.4	2	7	315	0.00	29.714 
00:50	65.6	65.6	65.6	88	61.9	3	6	270	0.00	29.714 
00:55	65.5	65.5	65.5	89	62.2	2	6	292	0.00	29.714 
01:00	65.2	65.2	65.2	88	61.6	3	7	292	0.00	29.718 
01:05	65.0	65.0	65.0	88	61.4	3	10	292	0.00	29.718 
01:10	64.8	64.8	64.8	88	61.2	2	5	315	0.00	29.718 
01:15	64.8	64.8	64.8	88	61.2	1	4	315	0.00	29.719 
01:20	64.8	64.8	64.8	88	61.2	1	6	338	0.00	29.719 
01:25	64.3	64.3	64.3	88	60.7	3	9	315	0.00	29.719 
01:30	63.7	63.7	63.7	87	59.8	4	9	292	0.00	29.732 
01:35	63.2	63.2	63.2	86	58.9	3	9	292	0.00	29.732 
01:40	63.1	63.1	63.1	86	58.8	3	7	315	0.00	29.732 
01:45	62.7	62.7	62.7	85	58.1	3	10	315	0.00	29.748 
01:50	62.4	62.4	62.4	85	57.8	3	6	315	0.00	29.748 
01:55	62.3	62.3	62.3	85	57.7	2	6	315	0.00	29.748 
02:00	62.1	62.1	62.1	86	57.9	2	6	292	0.00	29.757 
02:05	62.0	62.0	62.0	86	57.8	3	9	315	0.00	29.757 
02:10	62.0	62.0	62.0	85	57.4	3	7	292	0.00	29.757 
02:15	62.0	62.0	62.0	85	57.4	1	3	292	0.00	29.763 
02:20	61.8	61.8	61.8	85	57.2	3	7	292	0.00	29.763 
02:25	61.5	61.5	61.5	85	56.9	3	7	292	0.00	29.763 
02:30	61.5	61.5	61.5	84	56.6	3	7	292	0.00	29.771 
02:35	61.3	61.3	61.3	84	56.4	2	5	292	0.00	29.771 
02:40	61.3	61.3	61.3	84	56.4	2	5	292	0.00	29.771 
02:45	61.2	61.2	61.2	84	56.3	1	5	338	0.00	29.782 
02:50	61.2	61.2	61.2	84	56.3	2	4	338	0.00	29.782 
02:55	61.0	61.0	61.0	84	56.1	2	6	292	0.00	29.782 
03:00	60.9	60.9	60.9	84	56.0	3	7	292	0.00	29.787 
03:05	60.7	60.7	60.7	84	55.8	2	6	270	0.00	29.787 
03:10	60.5	60.5	60.5	84	55.6	4	7	292	0.00	29.787 
03:15	60.4	60.4	60.4	84	55.5	1	4	292	0.00	29.788 
03:20	60.4	60.4	60.4	85	55.9	2	6	315	0.00	29.788 
03:25	60.1	60.1	60.1	86	55.9	2	5	270	0.00	29.788 
03:30	60.1	60.1	60.1	86	55.9	2	6	270	0.00	29.797 
03:35	59.9	59.9	59.9	86	55.7	1	5	338	0.00	29.797 
03:40	59.8	59.8	59.8	86	55.6	3	6	315	0.00	29.797 
03:45	59.2	59.2	59.2	86	55.0	3	6	292	0.00	29.807 
03:50	58.7	58.7	58.7	87	54.8	3	9	315	0.00	29.807 
03:55	58.3	58.3	58.3	88	54.8	2	7	315	0.00	29.807 
04:00	58.0	58.0	58.0	88	54.5	2	5	315	0.00	29.820 
04:05	57.8	57.8	57.8	89	54.6	2	5	292	0.00	29.820 
04:10	57.5	57.5	57.5	89	54.3	3	5	292	0.00	29.820 
04:15	57.5	57.5	57.5	89	54.3	2	5	270	0.00	29.830 
04:20	57.5	57.5	57.5	89	54.3	2	5	270	0.00	29.830 
04:25	57.5	57.5	57.5	89	54.3	1	4	270	0.00	29.830 
04:30	57.5	57.5	57.5	88	54.0	2	6	315	0.00	29.837 
04:35	57.5	57.5	57.5	88	54.0	1	4	270	0.00	29.837 
04:40	57.5	57.5	57.5	88	54.0	1	4	270	0.00	29.837 
04:45	57.5	57.5	57.5	88	54.0	2	5	315	0.00	29.842 
04:50	57.5	57.5	57.5	88	54.0	1	5	270	0.00	29.842 
04:55	57.6	57.6	57.6	88	54.1	1	4	292	0.00	29.842 
05:00	57.6	57.6	57.6	88	54.1	2	5	270	0.00	29.846 
05:05	57.5	57.5	57.5	88	54.0	1	4	338	0.00	29.846 
05:10	57.3	57.3	57.3	87	53.5	2	7	315	0.00	29.846 
05:15	57.0	57.0	57.0	87	53.2	4	6	270	0.00	29.854 
05:20	56.9	56.9	56.9	88	53.4	3	6	270	0.00	29.854 
05:25	56.7	56.7	56.7	88	53.2	2	5	338	0.00	29.854 
05:30	56.6	56.6	56.6	89	53.4	2	6	270	0.00	29.861 
05:35	56.5	56.5	56.5	89	53.3	2	5	315	0.00	29.861 
05:40	56.5	56.5	56.5	89	53.3	1	4	292	0.00	29.861 
05:45	56.5	56.5	56.5	90	53.6	1	4	338	0.00	29.871 
05:50	56.5	56.5	56.5	90	53.6	1	4	315	0.01	29.871 
05:55	56.5	56.5	56.5	90	53.6	0	2	315	0.00	29.871 
06:00	56.3	56.3	56.3	90	53.4	1	4	315	0.00	29.877 
06:05	56.2	56.2	56.2	90	53.3	1	5	292	0.00	29.877 
06:10	56.0	56.0	56.0	90	53.1	1	4	292	0.00	29.877 
06:15	55.9	55.9	55.9	90	53.0	1	5	315	0.00	29.887 
06:20	55.9	55.9	55.9	90	53.0	1	5	270	0.00	29.887 
06:25	55.7	55.7	55.7	90	52.8	1	5	315	0.00	29.887 
06:30	55.6	55.6	55.6	90	52.7	1	5	315	0.00	29.900 
06:35	55.4	55.4	55.4	89	52.2	2	4	315	0.00	29.900 
06:40	55.3	55.3	55.3	88	51.8	2	5	315	0.00	29.900 
06:45	55.1	55.1	55.1	88	51.6	2	5	292	0.00	29.914 
06:50	55.1	55.1	55.1	88	51.6	2	6	292	0.00	29.914 
06:55	55.0	55.0	55.0	88	51.5	2	6	292	0.00	29.914 
07:00	54.8	54.8	54.8	87	51.0	2	5	292	0.00	29.925 
07:05	54.7	54.7	54.7	85	50.3	3	7	292	0.00	29.925 
07:10	54.7	54.7	54.7	84	50.0	3	6	315	0.00	29.925 
07:15	54.7	54.7	54.7	84	50.0	2	4	315	0.00	29.933 
07:20	54.8	54.8	54.8	84	50.1	2	4	315	0.00	29.933 
07:25	54.8	54.8	54.8	84	50.1	1	4	292	0.00	29.933 
07:30	54.8	54.8	54.8	84	50.1	2	5	292	0.00	29.937 
07:35	55.0	55.0	55.0	84	50.3	1	4	315	0.00	29.937 
07:40	55.0	55.0	55.0	85	50.6	1	3	315	0.00	29.937 
07:45	55.0	55.0	55.0	85	50.6	1	3	315	0.00	29.951 
07:50	55.0	55.0	55.0	86	50.9	0	1	315	0.00	29.951 
07:55	55.0	55.0	55.0	86	50.9	0	1	315	0.00	29.951 
08:00	55.0	55.0	55.0	86	50.9	0	3	315	0.00	29.957 
08:05	55.0	55.0	55.0	87	51.2	1	4	315	0.00	29.957 
08:10	55.0	55.0	55.0	87	51.2	0	2	270	0.00	29.957 
08:15	54.8	54.8	54.8	87	51.0	0	2	270	0.00	29.961 
08:20	54.8	54.8	54.8	87	51.0	1	5	270	0.00	29.961 
08:25	54.7	54.7	54.7	86	50.6	3	6	292	0.00	29.961 
08:30	54.7	54.7	54.7	85	50.3	3	6	292	0.00	29.967 
08:35	54.7	54.7	54.7	85	50.3	1	6	292	0.00	29.967 
08:40	54.8	54.8	54.8	85	50.4	2	7	315	0.00	29.967 
08:45	54.8	54.8	54.8	85	50.4	2	5	315	0.00	29.974 
08:50	54.8	54.8	54.8	85	50.4	3	5	315	0.00	29.974 
08:55	55.0	55.0	55.0	85	50.6	2	4	315	0.00	29.974 
09:00	55.1	55.1	55.1	85	50.7	1	4	315	0.00	29.978 
09:05	55.1	55.1	55.1	85	50.7	1	5	292	0.00	29.978 
09:10	55.1	55.1	55.1	86	51.0	1	4	292	0.00	29.978 
09:15	55.1	55.1	55.1	84	50.4	2	6	315	0.00	29.983 
09:20	55.1	55.1	55.1	85	50.7	2	6	315	0.00	29.983 
09:25	55.1	55.1	55.1	87	51.3	1	4	315	0.00	29.983 
09:30	54.8	54.8	54.8	87	51.0	2	4	338	0.00	29.993 
09:35	55.0	55.0	55.0	87	51.2	1	3	315	0.00	29.993 
09:40	55.1	55.1	55.1	86	51.0	1	5	315	0.00	29.993 
09:45	55.3	55.3	55.3	85	50.9	1	3	270	0.00	30.001 
09:50	55.1	55.1	55.1	84	50.4	2	5	270	0.00	30.001 
09:55	55.0	55.0	55.0	84	50.3	2	7	292	0.00	30.001 
10:00	55.1	55.1	55.1	85	50.7	2	5	292	0.00	30.012 
10:05	55.1	55.1	55.1	84	50.4	2	7	292	0.00	30.012 
10:10	55.4	55.4	55.4	84	50.6	3	7	315	0.00	30.012 
10:15	55.7	55.7	55.7	82	50.3	2	6	315	0.00	30.013 
10:20	55.7	55.7	55.7	83	50.6	2	7	292	0.00	30.013 
10:25	55.6	55.6	55.6	83	50.5	2	4	292	0.00	30.013 
10:30	55.6	55.6	55.6	84	50.8	1	4	338	0.00	30.017 
10:35	55.6	55.6	55.6	83	50.5	1	5	315	0.00	30.017 
10:40	55.6	55.6	55.6	83	50.5	1	5	315	0.00	30.017 
10:45	55.6	55.6	55.6	83	50.5	1	4	292	0.00	30.020 
10:50	55.6	55.6	55.6	84	50.8	1	6	292	0.00	30.020 
10:55	55.7	55.7	55.7	84	50.9	0	3	338	0.00	30.020 
11:00	55.9	55.9	55.9	83	50.8	1	6	338	0.00	30.029 
11:05	56.0	56.0	56.0	83	50.9	1	3	338	0.00	30.029 
11:10	56.5	56.5	56.5	81	50.7	1	3	338	0.00	30.029 
11:15	56.6	56.6	56.6	81	50.8	1	4	292	0.00	30.030 
11:20	56.6	56.6	56.6	80	50.5	1	4	270	0.00	30.030 
11:25	56.9	56.9	56.9	81	51.1	1	4	270	0.00	30.030 
11:30	57.0	57.0	57.0	80	50.9	1	4	270	0.00	30.031 
11:35	57.2	57.2	57.2	79	50.7	1	3	315	0.00	30.031 
11:40	57.6	57.6	57.6	79	51.1	1	5	292	0.00	30.031 
11:45	57.8	57.8	57.8	78	51.0	1	4	292	0.00	30.029 
11:50	57.6	57.6	57.6	78	50.8	1	4	315	0.00	30.029 
11:55	57.8	57.8	57.8	79	51.3	1	4	315	0.00	30.029 
12:00	57.8	57.8	57.8	78	51.0	1	3	315	0.00	30.029 
12:05	58.3	58.3	58.3	78	51.5	0	2	292	0.00	30.029 
12:10	58.4	58.4	58.4	78	51.6	1	4	292	0.00	30.029 
12:15	58.6	58.6	58.6	78	51.8	1	3	292	0.00	30.033 
12:20	58.6	58.6	58.6	78	51.8	2	5	292	0.00	30.033 
12:25	58.4	58.4	58.4	77	51.2	2	7	315	0.00	30.033 
12:30	58.4	58.4	58.4	78	51.6	1	4	315	0.00	30.048 
12:35	58.3	58.3	58.3	77	51.1	2	5	315	0.00	30.048 
12:40	58.3	58.3	58.3	78	51.5	1	3	292	0.00	30.048 
12:45	58.3	58.3	58.3	79	51.8	1	4	292	0.00	30.047 
12:50	58.6	58.6	58.6	79	52.1	1	3	292	0.00	30.047 
12:55	58.7	58.7	58.7	77	51.5	2	6	270	0.00	30.047 
13:00	58.6	58.6	58.6	77	51.4	2	7	270	0.00	30.049 
13:05	58.4	58.4	58.4	77	51.2	2	5	292	0.00	30.049 
13:10	58.3	58.3	58.3	76	50.8	2	5	292	0.00	30.049 
13:15	58.6	58.6	58.6	77	51.4	2	5	292	0.00	30.059 
13:20	59.0	59.0	59.0	77	51.8	2	3	338	0.00	30.059 
13:25	59.2	59.2	59.2	74	50.9	2	4	338	0.00	30.059 
13:30	59.0	59.0	59.0	76	51.4	1	4	0	0.00	30.063 
13:35	59.0	59.0	59.0	77	51.8	1	3	338	0.00	30.063 
13:40	59.0	59.0	59.0	76	51.4	2	3	292	0.00	30.063 
13:45	59.0	59.0	59.0	76	51.4	2	5	292	0.00	30.066 
13:50	58.9	58.9	58.9	76	51.3	2	5	270	0.00	30.066 
13:55	59.3	59.3	59.3	77	52.1	2	5	338	0.00	30.066 
14:00	59.3	59.3	59.3	75	51.4	2	6	292	0.00	30.067 
14:05	59.6	59.6	59.6	75	51.7	1	4	270	0.00	30.067 
14:10	59.6	59.6	59.6	75	51.7	1	4	338	0.00	30.067 
14:15	59.5	59.5	59.5	75	51.6	2	6	292	0.00	30.072 
14:20	59.3	59.3	59.3	77	52.1	1	5	292	0.00	30.072 
14:25	59.3	59.3	59.3	77	52.1	1	4	292	0.00	30.072 
14:30	59.2	59.2	59.2	76	51.6	1	5	315	0.00	30.074 
14:35	59.3	59.3	59.3	79	52.8	1	4	315	0.00	30.074 
14:40	59.2	59.2	59.2	76	51.6	2	4	338	0.00	30.074 
14:45	59.2	59.2	59.2	77	52.0	2	5	292	0.00	30.075 
14:50	59.2	59.2	59.2	77	52.0	1	5	315	0.00	30.075 
14:55	59.2	59.2	59.2	77	52.0	1	4	338	0.00	30.075 
15:00	59.0	59.0	59.0	77	51.8	3	5	292	0.00	30.076 
15:05	59.3	59.3	59.3	77	52.1	1	4	292	0.00	30.076 
15:10	59.5	59.5	59.5	75	51.6	2	5	292	0.00	30.076 
15:15	59.5	59.5	59.5	74	51.2	2	4	270	0.00	30.072 
15:20	59.8	59.8	59.8	75	51.9	1	4	270	0.00	30.072 
15:25	59.8	59.8	59.8	75	51.9	1	4	270	0.00	30.072 
15:30	59.6	59.6	59.6	74	51.3	1	4	292	0.00	30.077 
15:35	59.8	59.8	59.8	75	51.9	1	2	315	0.00	30.077 
15:40	59.6	59.6	59.6	75	51.7	1	3	315	0.00	30.077 
15:45	59.5	59.5	59.5	75	51.6	1	4	315	0.00	30.078 
15:50	59.3	59.3	59.3	76	51.7	1	4	315	0.00	30.078 
15:55	59.0	59.0	59.0	77	51.8	1	3	338	0.00	30.078 
16:00	58.9	58.9	58.9	77	51.7	1	5	315	0.00	30.084 
16:05	58.6	58.6	58.6	77	51.4	2	4	292	0.00	30.084 
16:10	58.7	58.7	58.7	77	51.5	1	3	292	0.00	30.084 
16:15	59.0	59.0	59.0	77	51.8	1	3	292	0.00	30.080 
16:20	59.0	59.0	59.0	76	51.4	1	3	292	0.00	30.080 
16:25	59.2	59.2	59.2	76	51.6	0	2	292	0.00	30.080 
16:30	59.2	59.2	59.2	74	50.9	1	6	292	0.00	30.085 
16:35	59.2	59.2	59.2	74	50.9	1	5	315	0.00	30.085 
16:40	58.9	58.9	58.9	74	50.6	1	5	315	0.00	30.085 
16:45	58.9	58.9	58.9	75	51.0	1	4	315	0.00	30.084 
16:50	58.7	58.7	58.7	76	51.2	1	4	315	0.00	30.084 
16:55	58.7	58.7	58.7	76	51.2	0	3	315	0.00	30.084 
17:00	58.9	58.9	58.9	76	51.3	1	4	315	0.00	30.079 
17:05	58.7	58.7	58.7	75	50.8	1	3	315	0.00	30.079 
17:10	58.9	58.9	58.9	75	51.0	1	5	315	0.00	30.079 
17:15	58.9	58.9	58.9	75	51.0	1	4	315	0.00	30.086 
17:20	58.9	58.9	58.9	73	50.3	1	4	315	0.00	30.086 
17:25	58.9	58.9	58.9	73	50.3	1	5	315	0.00	30.086 
17:30	58.9	58.9	58.9	74	50.6	0	3	90	0.00	30.089 
17:35	58.7	58.7	58.7	73	50.1	1	4	270	0.00	30.089 
17:40	58.9	58.9	58.9	73	50.3	1	4	270	0.00	30.089 
17:45	58.7	58.7	58.7	72	49.7	1	4	292	0.00	30.097 
17:50	58.7	58.7	58.7	73	50.1	0	2	292	0.00	30.097 
17:55	58.7	58.7	58.7	73	50.1	0	2	292	0.00	30.097 
18:00	58.6	58.6	58.6	73	50.0	1	4	292	0.00	30.102 
18:05	58.6	58.6	58.6	74	50.3	0	2	22	0.00	30.102 
18:10	58.4	58.4	58.4	73	49.8	1	4	0	0.00	30.102 
18:15	58.4	58.4	58.4	73	49.8	0	3	0	0.00	30.108 
18:20	58.6	58.6	58.6	72	49.6	0	2	0	0.00	30.108 
18:25	58.6	58.6	58.6	72	49.6	0	4	0	0.00	30.108 
18:30	58.4	58.4	58.4	73	49.8	0	3	0	0.00	30.112 
18:35	58.3	58.3	58.3	72	49.3	1	2	0	0.00	30.112 
18:40	58.3	58.3	58.3	72	49.3	0	1	338	0.00	30.112 
18:45	58.3	58.3	58.3	72	49.3	1	5	338	0.00	30.116 
18:50	58.3	58.3	58.3	72	49.3	0	3	338	0.00	30.116 
18:55	58.3	58.3	58.3	72	49.3	1	3	315	0.00	30.116 
19:00	58.3	58.3	58.3	72	49.3	1	5	338	0.00	30.120 
19:05	58.1	58.1	58.1	74	49.9	0	3	338	0.00	30.120 
19:10	58.1	58.1	58.1	74	49.9	0	4	338	0.00	30.120 
19:15	58.1	58.1	58.1	74	49.9	0	2	338	0.00	30.119 
19:20	58.0	58.0	58.0	74	49.8	1	3	338	0.00	30.119 
19:25	58.0	58.0	58.0	74	49.8	0	1	338	0.00	30.119 
19:30	58.0	58.0	58.0	75	50.1	0	1	338	0.00	30.117 
19:35	57.8	57.8	57.8	75	49.9	0	1	338	0.00	30.117 
19:40	57.8	57.8	57.8	75	49.9	0	3	338	0.00	30.117 
19:45	57.6	57.6	57.6	75	49.7	0	1	338	0.00	30.119 
19:50	57.6	57.6	57.6	76	50.1	0	2	338	0.00	30.119 
19:55	57.5	57.5	57.5	76	50.0	0	2	338	0.00	30.119 
20:00	57.3	57.3	57.3	76	49.8	0	4	338	0.00	30.123 
20:05	57.3	57.3	57.3	76	49.8	0	2	338	0.00	30.123 
20:10	57.3	57.3	57.3	77	50.1	0	1	338	0.00	30.123 
20:15	57.2	57.2	57.2	77	50.1	0	1	338	0.00	30.127 
20:20	57.2	57.2	57.2	77	50.1	0	1	338	0.00	30.127 
20:25	57.0	57.0	57.0	77	49.9	0	1	338	0.00	30.127 
20:30	57.0	57.0	57.0	77	49.9	0	1	338	0.00	30.129 
20:35	57.0	57.0	57.0	77	49.9	0	1	338	0.00	30.129 
20:40	57.0	57.0	57.0	77	49.9	0	1	338	0.00	30.129 
20:45	57.0	57.0	57.0	78	50.2	0	1	338	0.00	30.137 
20:50	57.0	57.0	57.0	78	50.2	0	1	338	0.00	30.137 
20:55	57.0	57.0	57.0	78	50.2	0	1	338	0.00	30.137 
21:00	57.0	57.0	57.0	79	50.5	0	0	---	0.00	30.150 
21:05	56.9	56.9	56.9	79	50.5	0	1	338	0.00	30.150 
21:10	56.9	56.9	56.9	79	50.5	0	1	338	0.00	30.150 
21:15	56.9	56.9	56.9	79	50.5	0	2	338	0.00	30.153 
21:20	56.9	56.9	56.9	79	50.5	0	2	338	0.00	30.153 
21:25	56.9	56.9	56.9	79	50.5	0	1	338	0.00	30.153 
21:30	56.9	56.9	56.9	79	50.5	0	1	338	0.00	30.155 
21:35	56.7	56.7	56.7	79	50.3	0	1	338	0.00	30.155 
21:40	56.7	56.7	56.7	79	50.3	0	3	338	0.00	30.155 
21:45	56.7	56.7	56.7	79	50.3	0	1	338	0.00	30.163 
21:50	56.7	56.7	56.7	79	50.3	0	2	338	0.00	30.163 
21:55	56.6	56.6	56.6	79	50.2	0	1	338	0.00	30.163 
22:00	56.6	56.6	56.6	79	50.2	0	1	338	0.00	30.165 
22:05	56.6	56.6	56.6	79	50.2	0	1	338	0.00	30.165 
22:10	56.5	56.5	56.5	80	50.4	0	1	338	0.00	30.165 
22:15	56.5	56.5	56.5	80	50.4	0	0	---	0.00	30.167 
22:20	56.5	56.5	56.5	80	50.4	0	1	338	0.00	30.167 
22:25	56.5	56.5	56.5	80	50.4	0	2	338	0.00	30.167 
22:30	56.3	56.3	56.3	80	50.2	0	1	338	0.00	30.170 
22:35	56.3	56.3	56.3	80	50.2	0	3	338	0.00	30.170 
22:40	56.2	56.2	56.2	80	50.1	0	1	338	0.00	30.170 
22:45	56.2	56.2	56.2	81	50.4	0	1	338	0.00	30.170 
22:50	56.0	56.0	56.0	81	50.3	0	1	338	0.00	30.170 
22:55	56.0	56.0	56.0	81	50.3	0	1	338	0.00	30.170 
23:00	55.9	55.9	55.9	81	50.2	0	1	338	0.00	30.181 
23:05	55.9	55.9	55.9	81	50.2	0	1	338	0.00	30.181 
23:10	55.9	55.9	55.9	81	50.2	0	1	338	0.00	30.181 
23:15	55.9	55.9	55.9	82	50.5	0	1	338	0.00	30.176 
23:20	55.7	55.7	55.7	82	50.3	0	1	338	0.00	30.176 
23:25	55.7	55.7	55.7	82	50.3	0	1	338	0.00	30.176 
23:30	55.7	55.7	55.7	82	50.3	0	1	338	0.00	30.183 
23:35	55.7	55.7	55.7	83	50.6	0	0	---	0.00	30.183 
23:40	55.7	55.7	55.7	83	50.6	0	1	338	0.00	30.183 
23:45	55.7	55.7	55.7	83	50.6	0	1	338	0.00	30.189 
23:50	55.7	55.7	55.7	83	50.6	0	1	338	0.00	30.189 
23:55	55.6	55.6	55.6	83	50.5	0	1	338	0.00	30.189 

CoCoRaHS
IN-AL-39
A2 Web Hosting
Creative Commons License
GoDaddy
search engine by freefind advanced

loaded 2018-11-19 11:14:35 • last modified 2010-11-18 10:43:29
Privacy PolicyDisclaimer
• wx.awcolley.com is powered by PmWiki v.2002016 •
• all content (unless otherwise noted) © 2018 A W Colley